Sardinia Regina — IBMS — position and weather

sailwx.info

Track history (hours):
 
Tides and Currents Weather Stations Pressure Air Temp Water Temp Dewpoint Dewpoint Depression Visibility Wind Speed Wind Dir Waves Ship Positions

Sardinia Regina

Last reported at 2016-Dec-06 22:32 UTC. Time now 2016-Dec-08 20:17 UTC.
Position N 42°57' E 010°00'.

Length 146 m; draft 5 m.

Type: Passenger vessel. MMSI: 247079000.

Date/timePositionNaut miles runAvg speedWind from/ knotsBaromVisibWave heightAir tempDewpointWater temp
2016-Dec-06 22:32N 42°57' E 010°00'1717.5
2016-Dec-06 21:33N 43°14' E 010°06'1717.5
2016-Dec-06 20:34N 43°31' E 010°12'5 2.5
2016-Dec-06 18:30N 43°33' E 010°18'0 0.0
2016-Dec-06 17:27N 43°33' E 010°18'8 8.4
2016-Dec-06 16:33N 43°27' E 010°12'1515.4
2016-Dec-06 15:33N 43°13' E 010°04'2115.2
2016-Dec-06 14:12N 42°55' E 009°51'3 0.7
2016-Dec-06 10:05N 42°53' E 009°47'816.1
2016-Dec-06 09:33N 42°58' E 009°56'1616.1
2016-Dec-06 08:33N 43°14' E 010°04'1716.5
2016-Dec-06 07:33N 43°29' E 010°12'6 6.0
2016-Dec-06 06:34N 43°33' E 010°18'0 0.3
2016-Dec-06 05:33N 43°33' E 010°18'1313.1
2016-Dec-06 04:34N 43°21' E 010°11'1817.9
2016-Dec-06 03:33N 43°03' E 010°05'4 0.1
2016-Dec-04 21:33N 43°08' E 010°04'1817.7
2016-Dec-04 20:34N 43°25' E 010°11'10 9.4
2016-Dec-04 19:29N 43°33' E 010°18'0 0.0
2016-Dec-04 18:32N 43°33' E 010°18'1 1.0
2016-Dec-04 17:34N 43°32' E 010°17'1413.6
2016-Dec-04 16:33N 43°20' E 010°08'1716.2
2016-Dec-04 15:32N 43°05' E 010°00'15 3.4
2016-Dec-04 11:14N 42°53' E 009°47'1015.3
2016-Dec-04 10:34N 43°00' E 009°58'1616.1
2016-Dec-04 09:34N 43°16' E 010°04'1616.5
2016-Dec-04 08:33N 43°31' E 010°13'4 4.3
2016-Dec-04 07:33N 43°33' E 010°18'1 1.1
2016-Dec-04 06:34N 43°32' E 010°17'1313.1
2016-Dec-04 05:33N 43°20' E 010°10'1514.8
2016-Dec-04 04:32N 43°06' E 010°05'7 0.2
2016-Dec-02 21:34N 43°13' E 010°05'1716.8
2016-Dec-02 20:34N 43°29' E 010°11'7 6.5
2016-Dec-02 19:33N 43°33' E 010°18'0 0.0
2016-Dec-02 18:30N 43°33' E 010°18'0 0.0
2016-Dec-02 17:30N 43°33' E 010°18'1010.7
2016-Dec-02 16:33N 43°26' E 010°09'1514.9
2016-Dec-02 15:33N 43°15' E 009°54'22 4.1
2016-Dec-02 10:11N 42°54' E 009°48'1015.4
2016-Dec-02 09:32N 43°01' E 009°58'1615.9
2016-Dec-02 08:33N 43°15' E 010°05'1615.9
2016-Dec-02 07:33N 43°30' E 010°12'5 5.2
2016-Dec-02 06:33N 43°33' E 010°18'0 0.0
2016-Dec-02 05:33N 43°33' E 010°18'1010.0
2016-Dec-02 04:33N 43°24' E 010°12'1717.0
2016-Dec-02 03:33N 43°08' E 010°06'3 0.1
2016-Nov-30 21:33N 43°09' E 010°04'1818.0
2016-Nov-30 20:34N 43°27' E 010°10'9 8.7
2016-Nov-30 19:34N 43°33' E 010°18'0 0.0
2016-Nov-30 18:33N 43°33' E 010°18'0 0.0
2016-Nov-30 17:34N 43°33' E 010°18'8 8.5
2016-Nov-30 16:33N 43°27' E 010°10'1515.4
2016-Nov-30 15:33N 43°16' E 009°55'1515.2
2016-Nov-30 14:33N 43°05' E 009°41'12 2.8
2016-Nov-30 10:03N 42°54' E 009°48'1416.5
2016-Nov-30 09:14N 43°05' E 009°59'1217.6
2016-Nov-30 08:33N 43°16' E 010°04'1717.3
2016-Nov-30 07:33N 43°31' E 010°14'3 3.1
2016-Nov-30 06:34N 43°33' E 010°18'1 1.4
2016-Nov-30 05:33N 43°32' E 010°17'1615.6
2016-Nov-30 04:34N 43°17' E 010°09'9 0.3
2016-Nov-28 21:33N 43°09' E 010°05'1817.8
2016-Nov-28 20:33N 43°26' E 010°11'9 7.5
2016-Nov-28 19:23N 43°33' E 010°18'0 0.0
2016-Nov-28 18:32N 43°33' E 010°18'0 0.0
2016-Nov-28 17:32N 43°33' E 010°18'0 0.0
2016-Nov-28 16:29N 43°33' E 010°18'0 0.0
2016-Nov-28 15:32N 43°33' E 010°18'0 0.0
2016-Nov-28 14:32N 43°33' E 010°18'0 0.0
2016-Nov-28 13:32N 43°33' E 010°18'0 0.0
2016-Nov-28 12:29N 43°33' E 010°18'0 0.0
2016-Nov-28 11:32N 43°33' E 010°18'0 0.0
2016-Nov-28 10:32N 43°33' E 010°18'0 0.0
2016-Nov-28 09:32N 43°33' E 010°18'0 0.0
2016-Nov-28 08:32N 43°33' E 010°18'0 0.0
2016-Nov-28 07:32N 43°33' E 010°18'0 0.0
2016-Nov-28 06:26N 43°33' E 010°18'0 0.0
2016-Nov-28 05:33N 43°33' E 010°18'1211.8
2016-Nov-28 04:34N 43°23' E 010°11'  
Track history (hours):
 
Tides and Currents Weather Stations Pressure Air Temp Water Temp Dewpoint Dewpoint Depression Visibility Wind Speed Wind Dir Waves Ship Positions

Sardinia Regina

Last reported at 2016-Dec-06 22:32 UTC. Time now 2016-Dec-08 20:17 UTC.
Position N 42°57' E 010°00'.

Length 146 m; draft 5 m.

Type: Passenger vessel. MMSI: 247079000.

Date/timePositionNaut miles runAvg speedWind from/ knotsBaromVisibWave heightAir tempDewpointWater temp
2016-Dec-06 22:32N 42°57' E 010°00'1717.5
2016-Dec-06 21:33N 43°14' E 010°06'1717.5
2016-Dec-06 20:34N 43°31' E 010°12'5 2.5
2016-Dec-06 18:30N 43°33' E 010°18'0 0.0
2016-Dec-06 17:27N 43°33' E 010°18'8 8.4
2016-Dec-06 16:33N 43°27' E 010°12'1515.4
2016-Dec-06 15:33N 43°13' E 010°04'2115.2
2016-Dec-06 14:12N 42°55' E 009°51'3 0.7
2016-Dec-06 10:05N 42°53' E 009°47'816.1
2016-Dec-06 09:33N 42°58' E 009°56'1616.1
2016-Dec-06 08:33N 43°14' E 010°04'1716.5
2016-Dec-06 07:33N 43°29' E 010°12'6 6.0
2016-Dec-06 06:34N 43°33' E 010°18'0 0.3
2016-Dec-06 05:33N 43°33' E 010°18'1313.1
2016-Dec-06 04:34N 43°21' E 010°11'1817.9
2016-Dec-06 03:33N 43°03' E 010°05'4 0.1
2016-Dec-04 21:33N 43°08' E 010°04'1817.7
2016-Dec-04 20:34N 43°25' E 010°11'10 9.4
2016-Dec-04 19:29N 43°33' E 010°18'0 0.0
2016-Dec-04 18:32N 43°33' E 010°18'1 1.0
2016-Dec-04 17:34N 43°32' E 010°17'1413.6
2016-Dec-04 16:33N 43°20' E 010°08'1716.2
2016-Dec-04 15:32N 43°05' E 010°00'15 3.4
2016-Dec-04 11:14N 42°53' E 009°47'1015.3
2016-Dec-04 10:34N 43°00' E 009°58'1616.1
2016-Dec-04 09:34N 43°16' E 010°04'1616.5
2016-Dec-04 08:33N 43°31' E 010°13'4 4.3
2016-Dec-04 07:33N 43°33' E 010°18'1 1.1
2016-Dec-04 06:34N 43°32' E 010°17'1313.1
2016-Dec-04 05:33N 43°20' E 010°10'1514.8
2016-Dec-04 04:32N 43°06' E 010°05'7 0.2
2016-Dec-02 21:34N 43°13' E 010°05'1716.8
2016-Dec-02 20:34N 43°29' E 010°11'7 6.5
2016-Dec-02 19:33N 43°33' E 010°18'0 0.0
2016-Dec-02 18:30N 43°33' E 010°18'0 0.0
2016-Dec-02 17:30N 43°33' E 010°18'1010.7
2016-Dec-02 16:33N 43°26' E 010°09'1514.9
2016-Dec-02 15:33N 43°15' E 009°54'22 4.1
2016-Dec-02 10:11N 42°54' E 009°48'1015.4
2016-Dec-02 09:32N 43°01' E 009°58'1615.9
2016-Dec-02 08:33N 43°15' E 010°05'1615.9
2016-Dec-02 07:33N 43°30' E 010°12'5 5.2
2016-Dec-02 06:33N 43°33' E 010°18'0 0.0
2016-Dec-02 05:33N 43°33' E 010°18'1010.0
2016-Dec-02 04:33N 43°24' E 010°12'1717.0
2016-Dec-02 03:33N 43°08' E 010°06'3 0.1
2016-Nov-30 21:33N 43°09' E 010°04'1818.0
2016-Nov-30 20:34N 43°27' E 010°10'9 8.7
2016-Nov-30 19:34N 43°33' E 010°18'0 0.0
2016-Nov-30 18:33N 43°33' E 010°18'0 0.0
2016-Nov-30 17:34N 43°33' E 010°18'8 8.5
2016-Nov-30 16:33N 43°27' E 010°10'1515.4
2016-Nov-30 15:33N 43°16' E 009°55'1515.2
2016-Nov-30 14:33N 43°05' E 009°41'12 2.8
2016-Nov-30 10:03N 42°54' E 009°48'1416.5
2016-Nov-30 09:14N 43°05' E 009°59'1217.6
2016-Nov-30 08:33N 43°16' E 010°04'1717.3
2016-Nov-30 07:33N 43°31' E 010°14'3 3.1
2016-Nov-30 06:34N 43°33' E 010°18'1 1.4
2016-Nov-30 05:33N 43°32' E 010°17'1615.6
2016-Nov-30 04:34N 43°17' E 010°09'9 0.3
2016-Nov-28 21:33N 43°09' E 010°05'1817.8
2016-Nov-28 20:33N 43°26' E 010°11'9 7.5
2016-Nov-28 19:23N 43°33' E 010°18'0 0.0
2016-Nov-28 18:32N 43°33' E 010°18'0 0.0
2016-Nov-28 17:32N 43°33' E 010°18'0 0.0
2016-Nov-28 16:29N 43°33' E 010°18'0 0.0
2016-Nov-28 15:32N 43°33' E 010°18'0 0.0
2016-Nov-28 14:32N 43°33' E 010°18'0 0.0
2016-Nov-28 13:32N 43°33' E 010°18'0 0.0
2016-Nov-28 12:29N 43°33' E 010°18'0 0.0
2016-Nov-28 11:32N 43°33' E 010°18'0 0.0
2016-Nov-28 10:32N 43°33' E 010°18'0 0.0
2016-Nov-28 09:32N 43°33' E 010°18'0 0.0
2016-Nov-28 08:32N 43°33' E 010°18'0 0.0
2016-Nov-28 07:32N 43°33' E 010°18'0 0.0
2016-Nov-28 06:26N 43°33' E 010°18'0 0.0
2016-Nov-28 05:33N 43°33' E 010°18'1211.8
2016-Nov-28 04:34N 43°23' E 010°11'  

Dump ship's entire track history